ADDS METAR Data INFO
IDs: Format: Raw Decoded Include TAF

Data at: 1517 UTC 23 Oct 2017

KSWO 231453Z 26008G17KT 5SM HZ CLR 14/06 A3004 RMK AO2 SLP171 T01440061 53007
KSWO 231353Z 24006KT 10SM CLR 11/06 A3002 RMK AO2 SLP166 T01110061
KSWO 231253Z 23005KT 10SM CLR 08/04 A3003 RMK AO2 SLP166 T00830044
KSWO 231153Z AUTO 24003KT 10SM CLR 09/03 A3002 RMK AO2 SLP162 T00890033 10089 20061 56011
KSWO 231053Z AUTO 23004KT 10SM CLR 08/04 A3003 RMK AO2 SLP162 T00830039
KSWO 230953Z AUTO 21003KT 10SM CLR 07/04 A3004 RMK AO2 SLP168 T00720039
KSWO 230853Z AUTO 20003KT 10SM CLR 06/04 A3005 RMK AO2 SLP173 T00610039 56017
KSWO 230753Z AUTO 18004KT 10SM CLR 08/04 A3007 RMK AO2 SLP177 T00830044
KSWO 230653Z AUTO 21003KT 10SM CLR 06/04 A3008 RMK AO2 SLP182 T00610044
KSWO 230553Z AUTO 00000KT 10SM CLR 07/05 A3010 RMK AO2 SLP191 T00670050 10156 20067 402110067 57003
KSWO 230453Z AUTO 00000KT 10SM CLR 07/06 A3011 RMK AO2 SLP192 T00720056
KSWO 230353Z AUTO 00000KT 10SM CLR 09/07 A3011 RMK AO2 SLP193 T00890067
KSWO 230253Z AUTO 00000KT 10SM CLR 08/06 A3011 RMK AO2 SLP195 T00780061 58005
KSWO 230153Z AUTO 24003KT 10SM CLR 09/07 A3012 RMK AO2 SLP200 T00890072
KSWO 230053Z AUTO 00000KT 10SM CLR 11/07 A3012 RMK AO2 SLP198 T01110072
KSWO 222353Z 00000KT 10SM CLR 16/05 A3013 RMK AO2 SLP199 T01560050 10211 20150 57008
KSWO 222253Z 00000KT 10SM CLR 20/02 A3014 RMK AO2 SLP200 T02000022
KSWO 222153Z 32007KT 10SM CLR 21/01 A3015 RMK AO2 SLP203 T02060011
KSWO 222053Z VRB05KT 10SM CLR 21/03 A3015 RMK AO2 SLP205 T02110028 56020
KSWO 221953Z 32009KT 10SM CLR 21/03 A3016 RMK AO2 SLP207 T02060028
KSWO 221853Z 34009KT 280V010 10SM CLR 20/04 A3019 RMK AO2 SLP216 T02000039
KSWO 221753Z 31010KT 10SM CLR 19/05 A3021 RMK AO2 SLP225 T01890050 10189 20089 50008
KSWO 221653Z 35008KT 310V010 10SM CLR 18/07 A3022 RMK AO2 SLP228 T01780067
KSWO 221553Z 34009KT 10SM CLR 16/07 A3021 RMK AO2 SLP224 T01560067
KSWO 221453Z 34012KT 10SM CLR 13/07 A3019 RMK AO2 SLP219 T01280072 53016
KSWO 221353Z 33010KT 10SM CLR 11/07 A3016 RMK AO2 SLP210 T01060067
KSWO 221253Z 32007KT 10SM CLR 09/07 A3015 RMK AO2 SLP207 T00940072
KSWO 221153Z AUTO 31008KT 10SM CLR 10/08 A3014 RMK AO2 SLP199 70147 T01000083 10128 20094 51027
KSWO 221053Z AUTO 33007KT 10SM CLR 10/08 A3010 RMK AO2 SLP185 T01000083
KSWO 220953Z AUTO 33004KT 10SM CLR 11/09 A3010 RMK AO2 SLP187 T01060089
KSWO 220853Z AUTO 35006KT 10SM CLR 11/09 A3006 RMK AO2 SLP170 T01060089 51011
KSWO 220753Z AUTO 35007KT 10SM CLR 12/09 A3005 RMK AO2 SLP169 T01170094
KSWO 220716Z AUTO 33005KT 10SM SCT020 12/10 A3004 RMK AO2 T01170100
KSWO 220704Z AUTO 33007KT 10SM BKN020 12/10 A3003 RMK AO2 T01220100
KSWO 220653Z AUTO 33008KT 10SM FEW018 BKN110 12/10 A3003 RMK AO2 PRESRR SLP161 T01220100
KSWO 220553Z AUTO 02008KT 10SM FEW017 BKN110 13/11 A3002 RMK AO2 LTG DSNT E-S RAE37 TSE08 SLP158 P0001 60147 T01280106 10239 20128 402720128 53038
KSWO 220525Z AUTO 36009G18KT 10SM -RA FEW016 SCT050 OVC110 13/11 A3000 RMK AO2 LTG DSNT NE-S TSE08 P0001 T01280111
KSWO 220514Z AUTO 35008G22KT 10SM VCTS -RA FEW050 SCT090 OVC110 13/11 A2999 RMK AO2 LTG DSNT NE-S TSE08 PRESRR P0001 T01280111
KSWO 220453Z AUTO 03017G27KT 8SM TSRA OVC080 13/11 A2993 RMK AO2 PK WND 01031/0436 WSHFT 0407 LTG DSNT ALQDS TSE03B39 SLP127 P0017 T01280111
KSWO 220445Z AUTO 01019G31KT 8SM -TSRA OVC080 13/12 A2995 RMK AO2 PK WND 01031/0436 WSHFT 0407 LTG DSNT ALQDS TSE03B39 P0015 T01330117
KSWO 220421Z AUTO 01017G23KT 5SM VCTS RA BR SCT013 BKN050 OVC075 14/12 A2995 RMK AO2 WSHFT 0407 LTG DSNT ALQDS TSE03 PRESFR P0011 T01390122
KSWO 220403Z AUTO 32010KT 5SM VCTS RA BR FEW009 OVC016 14/13 A3002 RMK AO2 LTG DSNT ALQDS TSE03 PRESRR P0004 T01440128
KSWO 220353Z AUTO 34008KT 6SM TSRA BR FEW010 BKN018 OVC026 14/13 A2998 RMK AO2 LTG DSNT ALQDS TSB48 SLP146 P0022 T01440128
KSWO 220342Z AUTO 02007KT 5SM VCTS +RA BR SCT008 BKN017 OVC085 14/13 A2998 RMK AO2 LTG DSNT ALQDS P0018 T01440133